Time;durP1;ratioP1;P1;durP2;ratioP2;P2;SDS_P1;SDS_P2;PMS_P1;PMS_P2;Temp;Humidity;BMP_temperature;BMP_pressure;BME280_temperature;BME280_humidity;BME280_pressure;Samples;Min_cycle;Max_cycle;Signal;HPM_P1;HPM_P2
2021/03/03 00:00:06;;;;;;;15.27;9.63;;;;;;;4.89;63.58;101625.97;5036177;28;20060;-75
2021/03/03 00:02:33;;;;;;;19.13;10.63;;;;;;;4.84;63.35;101626.72;5045129;28;20495;-74
2021/03/03 00:05:05;;;;;;;18.00;10.43;;;;;;;4.84;63.86;101623.94;5062608;28;20057;-74
2021/03/03 00:07:41;;;;;;;15.75;9.65;;;;;;;4.84;63.89;101626.72;5066190;28;20056;-75
2021/03/03 00:10:21;;;;;;;15.32;10.63;;;;;;;4.80;64.75;101627.47;5067385;28;20059;-74
2021/03/03 00:12:59;;;;;;;18.60;9.82;;;;;;;4.73;64.71;101638.66;5066788;28;20060;-74
2021/03/03 00:15:34;;;;;;;18.63;10.80;;;;;;;4.74;64.14;101633.97;5067369;28;20052;-75
2021/03/03 00:18:05;;;;;;;17.15;10.88;;;;;;;4.74;63.80;101637.56;5066572;28;20049;-74
2021/03/03 00:20:37;;;;;;;17.25;10.73;;;;;;;4.74;64.01;101632.03;5062541;28;20049;-74
2021/03/03 00:23:10;;;;;;;15.57;10.88;;;;;;;4.70;63.48;101641.88;5045869;28;20068;-74
2021/03/03 00:25:44;;;;;;;17.05;9.85;;;;;;;4.66;64.14;101649.84;5046908;28;20057;-75
2021/03/03 00:28:14;;;;;;;18.35;11.15;;;;;;;4.63;63.78;101646.72;5047164;28;20090;-74
2021/03/03 00:30:55;;;;;;;15.48;9.45;;;;;;;4.63;63.77;101643.97;5046751;28;20064;-74
2021/03/03 00:33:26;;;;;;;19.10;9.30;;;;;;;4.61;64.31;101638.69;5051571;28;20059;-74
2021/03/03 00:35:58;;;;;;;16.90;8.77;;;;;;;4.63;63.93;101635.69;5066131;28;20053;-74
2021/03/03 00:38:29;;;;;;;15.90;9.63;;;;;;;4.60;63.54;101645.31;5065186;28;20049;-74
2021/03/03 00:40:59;;;;;;;16.25;9.50;;;;;;;4.57;64.20;101640.25;5066185;28;20057;-74
2021/03/03 00:43:30;;;;;;;15.93;9.63;;;;;;;4.55;64.71;101649.88;5066323;28;20063;-74
2021/03/03 00:46:06;;;;;;;20.08;8.93;;;;;;;4.55;64.40;101647.13;5064989;28;20067;-75
2021/03/03 00:48:38;;;;;;;15.10;8.65;;;;;;;4.47;64.46;101642.81;5064897;28;20060;-74
2021/03/03 00:51:11;;;;;;;15.35;9.32;;;;;;;4.52;64.21;101642.09;5065712;28;20057;-74
2021/03/03 00:53:40;;;;;;;13.48;8.65;;;;;;;4.54;64.07;101645.44;5058664;28;20530;-74
2021/03/03 00:56:10;;;;;;;19.15;9.30;;;;;;;4.43;64.64;101648.00;5044831;28;20053;-74
2021/03/03 00:58:43;;;;;;;16.92;10.20;;;;;;;4.44;64.63;101644.16;5044350;28;20050;-74
2021/03/03 01:01:16;;;;;;;13.70;8.43;;;;;;;4.46;64.61;101641.97;5044703;28;20061;-74
2021/03/03 01:03:50;;;;;;;16.73;9.85;;;;;;;4.46;64.43;101650.25;5062530;28;20053;-74
2021/03/03 01:06:22;;;;;;;16.95;10.02;;;;;;;4.44;65.25;101643.31;5063161;28;20036;-74
2021/03/03 01:08:53;;;;;;;17.15;9.48;;;;;;;4.44;65.37;101638.63;5064928;28;20052;-74
2021/03/03 01:11:24;;;;;;;17.10;9.88;;;;;;;4.40;65.30;101647.66;5065054;28;20056;-74
2021/03/03 01:13:58;;;;;;;16.20;8.73;;;;;;;4.32;65.10;101646.09;5064355;28;20056;-74
2021/03/03 01:16:31;;;;;;;14.48;8.90;;;;;;;4.34;65.64;101641.16;5059734;28;20714;-74
2021/03/03 01:19:02;;;;;;;16.58;8.98;;;;;;;4.33;65.57;101641.44;5063894;28;20049;-75
2021/03/03 01:21:32;;;;;;;14.18;9.00;;;;;;;4.32;65.12;101635.06;5063053;28;20048;-74
2021/03/03 01:24:05;;;;;;;;;;;;;;;4.35;64.86;101634.59;5057288;28;20049;-74
2021/03/03 01:26:36;;;;;;;13.20;8.57;;;;;;;4.34;65.53;101634.81;5044687;28;19921;-75
2021/03/03 01:29:07;;;;;;;15.88;8.48;;;;;;;4.34;65.43;101632.06;5044040;28;20053;-74
2021/03/03 01:31:38;;;;;;;13.50;8.23;;;;;;;4.31;65.61;101629.81;5043812;28;20061;-75
2021/03/03 01:34:08;;;;;;;15.43;8.52;;;;;;;4.32;65.71;101631.47;5053849;28;20049;-74
2021/03/03 01:36:43;;;;;;;14.90;8.20;;;;;;;4.33;65.29;101631.25;5063895;28;20057;-75
2021/03/03 01:39:15;;;;;;;14.57;8.80;;;;;;;4.30;65.89;101628.94;5059469;28;20049;-74
2021/03/03 01:41:45;;;;;;;14.98;9.40;;;;;;;4.32;65.24;101631.47;5063542;28;20052;-74
2021/03/03 01:44:17;;;;;;;14.80;8.40;;;;;;;4.31;65.00;101622.38;5064120;28;20053;-74
2021/03/03 01:46:47;;;;;;;14.73;8.93;;;;;;;4.31;65.31;101614.09;5063811;28;20049;-74
2021/03/03 01:49:16;;;;;;;15.70;8.45;;;;;;;4.30;65.37;101623.44;5061395;28;20060;-74
2021/03/03 01:51:46;;;;;;;16.98;9.63;;;;;;;4.28;65.36;101617.31;5062090;28;20063;-74
2021/03/03 01:54:15;;;;;;;;;;;;;;;4.23;65.82;101617.22;5050892;28;20060;-74
2021/03/03 01:56:47;;;;;;;14.40;8.55;;;;;;;4.20;65.19;101623.22;5043821;28;19940;-74
2021/03/03 01:59:21;;;;;;;13.75;8.32;;;;;;;4.21;65.32;101614.72;5042537;28;20057;-75
2021/03/03 02:01:52;;;;;;;17.25;8.95;;;;;;;4.18;65.73;101617.97;5044372;28;20555;-74
2021/03/03 02:04:24;;;;;;;19.67;8.15;;;;;;;4.16;65.46;101613.75;5042238;28;20064;-74
2021/03/03 02:07:05;;;;;;;14.13;8.80;;;;;;;4.19;65.19;101616.88;5043280;28;20068;-74
2021/03/03 02:09:48;;;;;;;12.85;8.32;;;;;;;4.19;65.10;101596.75;5044313;28;20072;-74
2021/03/03 02:12:26;;;;;;;15.25;8.52;;;;;;;4.16;65.21;101598.06;5044085;28;20055;-74
2021/03/03 02:15:04;;;;;;;12.15;7.90;;;;;;;4.11;65.82;101603.47;5043950;28;20072;-74
2021/03/03 02:17:36;;;;;;;14.18;9.20;;;;;;;4.10;65.88;101603.72;5043666;28;20061;-74
2021/03/03 02:20:20;;;;;;;14.57;8.25;;;;;;;4.07;65.51;101589.34;5044327;28;20053;-74
2021/03/03 02:23:01;;;;;;;15.48;8.45;;;;;;;4.08;65.70;101590.19;5049270;28;20072;-75
2021/03/03 02:25:35;;;;;;;16.25;9.05;;;;;;;4.09;65.89;101585.50;5062010;28;20052;-74
2021/03/03 02:28:09;;;;;;;16.55;8.05;;;;;;;4.07;65.15;101586.59;5063196;28;20059;-74
2021/03/03 02:30:39;;;;;;;12.98;7.63;;;;;;;4.06;65.55;101587.66;5058690;28;20049;-75
2021/03/03 02:33:06;;;;;;;16.13;9.27;;;;;;;4.05;64.92;101580.47;5054074;28;20045;-74
2021/03/03 02:35:33;;;;;;;13.45;8.73;;;;;;;4.00;65.56;101585.88;5053314;28;20045;-74
2021/03/03 02:38:03;;;;;;;16.15;8.15;;;;;;;3.99;65.81;101578.69;5052630;28;20394;-75
2021/03/03 02:40:31;;;;;;;;;;;;;;;3.97;65.56;101582.75;5034175;28;20056;-74
2021/03/03 02:43:00;;;;;;;13.88;7.97;;;;;;;3.96;65.02;101572.81;5033030;28;20302;-75
2021/03/03 02:45:29;;;;;;;14.65;7.97;;;;;;;3.92;65.54;101574.38;5033662;28;20049;-74
2021/03/03 02:47:59;;;;;;;13.18;7.55;;;;;;;3.89;65.23;101569.38;5034488;28;20056;-74
2021/03/03 02:50:26;;;;;;;;;;;;;;;3.86;65.40;101573.44;5033537;28;20049;-74
2021/03/03 02:52:54;;;;;;;15.93;8.52;;;;;;;3.85;65.21;101569.00;5033738;28;19925;-74
2021/03/03 02:55:22;;;;;;;14.85;8.35;;;;;;;3.85;64.86;101580.88;5033590;28;20050;-75
2021/03/03 02:57:50;;;;;;;14.00;8.02;;;;;;;3.85;65.64;101571.75;5033280;28;20053;-75
2021/03/03 03:00:20;;;;;;;15.70;8.98;;;;;;;3.86;65.37;101563.25;5035101;28;20054;-75
2021/03/03 03:02:48;;;;;;;;;;;;;;;3.83;65.30;101566.50;5037854;28;20060;-74
2021/03/03 03:05:18;;;;;;;13.68;8.05;;;;;;;3.80;65.17;101561.47;5055224;28;20393;-75
2021/03/03 03:07:48;;;;;;;;;;;;;;;3.76;65.73;101560.28;5057941;28;20056;-75
2021/03/03 03:10:16;;;;;;;15.53;8.33;;;;;;;3.76;65.15;101559.41;5057496;28;19937;-75
2021/03/03 03:12:46;;;;;;;13.25;8.60;;;;;;;3.76;65.86;101557.53;5047106;28;20382;-75
2021/03/03 03:15:16;;;;;;;15.27;8.63;;;;;;;3.74;65.21;101553.31;5038185;28;20054;-74
2021/03/03 03:17:46;;;;;;;16.13;9.18;;;;;;;3.72;65.77;101553.59;5037760;28;20399;-75
2021/03/03 03:20:17;;;;;;;15.20;9.35;;;;;;;3.70;65.74;101554.91;5037595;28;20069;-75
2021/03/03 03:22:46;;;;;;;16.33;9.90;;;;;;;3.66;66.30;101555.38;5042876;28;20386;-75
2021/03/03 03:25:15;;;;;;;14.82;9.02;;;;;;;3.69;66.06;101553.22;5038660;28;20061;-76
2021/03/03 03:27:43;;;;;;;15.95;9.20;;;;;;;3.64;66.89;101546.50;5037577;28;20065;-75
2021/03/03 03:30:12;;;;;;;14.65;9.02;;;;;;;3.70;66.72;101552.16;5037115;28;20050;-75
2021/03/03 03:32:41;;;;;;;15.77;9.40;;;;;;;3.68;65.72;101544.13;5037313;28;20053;-74
2021/03/03 03:35:09;;;;;;;17.50;9.55;;;;;;;3.71;65.63;101551.06;5056890;28;20486;-75
2021/03/03 03:37:38;;;;;;;14.80;9.40;;;;;;;3.69;65.70;101547.72;5057453;28;20053;-75
2021/03/03 03:40:06;;;;;;;14.77;9.23;;;;;;;3.69;65.66;101550.47;5040683;28;20068;-75
2021/03/03 03:42:34;;;;;;;15.48;8.95;;;;;;;3.70;65.62;101543.88;5037197;28;20060;-75
2021/03/03 03:45:03;;;;;;;15.30;8.70;;;;;;;3.69;65.74;101536.69;5037366;28;20056;-75
2021/03/03 03:47:30;;;;;;;17.60;8.90;;;;;;;3.69;65.29;101542.19;5037297;28;20060;-75
2021/03/03 03:50:03;;;;;;;15.15;8.85;;;;;;;3.69;65.26;101544.94;5036541;28;20049;-74
2021/03/03 03:52:33;;;;;;;15.38;9.23;;;;;;;3.66;66.00;101547.09;5036098;28;20133;-74
2021/03/03 03:55:00;;;;;;;16.58;9.27;;;;;;;3.66;66.52;101549.88;5036169;28;20114;-74
2021/03/03 03:57:27;;;;;;;16.98;9.25;;;;;;;3.68;65.60;101549.63;5036015;28;20054;-74
2021/03/03 03:59:54;;;;;;;15.70;9.23;;;;;;;3.66;65.96;101546.28;5036103;28;20057;-74
2021/03/03 04:02:21;;;;;;;20.48;9.43;;;;;;;3.68;66.15;101551.56;5036829;28;20058;-74
2021/03/03 04:04:48;;;;;;;19.15;9.88;;;;;;;3.65;65.92;101556.47;5036452;28;20064;-75
2021/03/03 04:07:15;;;;;;;16.00;9.27;;;;;;;3.70;66.10;101549.41;5036465;28;20050;-75
2021/03/03 04:09:42;;;;;;;15.80;9.45;;;;;;;3.71;65.50;101545.56;5037236;28;20064;-75
2021/03/03 04:12:09;;;;;;;15.25;8.32;;;;;;;3.71;65.29;101545.56;5035337;28;20054;-75
2021/03/03 04:14:37;;;;;;;15.77;8.93;;;;;;;3.71;65.76;101556.56;5036066;28;20080;-75
2021/03/03 04:17:04;;;;;;;16.05;9.15;;;;;;;3.71;65.72;101551.06;5035766;28;20053;-74
2021/03/03 04:19:31;;;;;;;17.75;9.30;;;;;;;3.72;65.98;101555.50;5035995;28;20053;-74
2021/03/03 04:21:57;;;;;;;15.60;9.55;;;;;;;3.71;65.43;101551.06;5036010;28;20049;-74
2021/03/03 04:24:25;;;;;;;18.70;9.65;;;;;;;3.71;65.12;101548.31;5037059;28;20057;-75
2021/03/03 04:26:52;;;;;;;15.45;9.07;;;;;;;3.72;65.94;101545.31;5035447;28;20045;-74
2021/03/03 04:29:21;;;;;;;18.38;10.60;;;;;;;3.74;65.63;101556.94;5036386;28;20057;-75
2021/03/03 04:31:48;;;;;;;17.15;10.85;;;;;;;3.72;65.93;101552.75;5035386;28;20064;-76
2021/03/03 04:34:14;;;;;;;17.40;9.90;;;;;;;3.73;66.21;101535.13;5048461;28;20057;-75
2021/03/03 04:36:41;;;;;;;17.88;10.45;;;;;;;3.76;66.05;101537.38;5056160;28;20060;-74
2021/03/03 04:39:08;;;;;;;19.95;8.82;;;;;;;3.75;65.68;101538.47;5055630;28;20049;-75
2021/03/03 04:41:36;;;;;;;15.20;8.68;;;;;;;3.72;65.62;101547.25;5055476;28;20060;-74
2021/03/03 04:44:02;;;;;;;15.40;9.02;;;;;;;3.75;65.48;101536.53;5056205;28;20056;-74
2021/03/03 04:46:29;;;;;;;16.58;9.05;;;;;;;3.77;66.52;101528.06;5055288;28;20057;-74
2021/03/03 04:48:56;;;;;;;17.70;9.25;;;;;;;3.77;65.88;101525.28;5055178;28;20072;-74
2021/03/03 04:51:23;;;;;;;13.98;8.65;;;;;;;3.79;66.50;101528.63;5054998;28;20060;-75
2021/03/03 04:53:49;;;;;;;16.02;8.23;;;;;;;3.82;66.21;101533.66;5046712;28;20060;-74
2021/03/03 04:56:16;;;;;;;15.48;8.18;;;;;;;3.84;65.90;101537.00;5035379;28;20061;-74
2021/03/03 04:58:44;;;;;;;13.75;7.90;;;;;;;3.84;66.26;101537.88;5034970;28;20069;-74
2021/03/03 05:01:11;;;;;;;11.68;7.57;;;;;;;3.85;65.70;101536.78;5035267;28;20475;-75
2021/03/03 05:03:38;;;;;;;14.40;8.48;;;;;;;3.87;65.37;101525.50;5035746;28;20064;-74
2021/03/03 05:06:05;;;;;;;13.52;8.38;;;;;;;3.81;65.40;101524.56;5035292;28;20058;-75
2021/03/03 05:08:32;;;;;;;16.27;8.82;;;;;;;3.85;65.52;101531.25;5035174;28;20045;-74
2021/03/03 05:10:58;;;;;;;12.85;7.90;;;;;;;3.91;65.64;101532.22;5035981;28;20060;-74
2021/03/03 05:13:25;;;;;;;14.40;8.18;;;;;;;3.94;65.74;101528.94;5034434;28;20049;-74
2021/03/03 05:15:53;;;;;;;14.73;8.15;;;;;;;3.96;64.94;101521.28;5035541;28;20061;-74
2021/03/03 05:18:20;;;;;;;15.18;8.35;;;;;;;3.97;65.17;101517.47;5036277;28;20054;-74
2021/03/03 05:20:47;;;;;;;14.65;8.68;;;;;;;3.94;65.45;101515.16;5045222;28;20490;-74
2021/03/03 05:23:14;;;;;;;15.85;9.05;;;;;;;3.94;65.27;101517.94;5052144;28;20060;-74
2021/03/03 05:25:41;;;;;;;15.13;8.48;;;;;;;3.95;65.98;101514.09;5046643;28;20049;-74
2021/03/03 05:28:08;;;;;;;17.35;9.32;;;;;;;3.96;65.13;101509.44;5054489;28;20049;-74
2021/03/03 05:30:34;;;;;;;14.20;8.82;;;;;;;3.99;65.88;101508.91;5053589;28;20060;-74
2021/03/03 05:33:02;;;;;;;14.45;8.50;;;;;;;4.00;65.61;101502.34;5053226;28;20163;-74
2021/03/03 05:35:29;;;;;;;14.68;9.25;;;;;;;4.03;65.92;101510.09;5053928;28;20049;-74
2021/03/03 05:37:56;;;;;;;15.43;8.80;;;;;;;4.01;65.78;101512.28;5053704;28;20049;-74
2021/03/03 05:40:23;;;;;;;17.05;9.23;;;;;;;4.00;65.47;101522.47;5035886;28;20053;-74
2021/03/03 05:42:50;;;;;;;16.80;9.82;;;;;;;4.01;65.55;101515.03;5042760;28;20056;-74
2021/03/03 05:45:18;;;;;;;16.85;9.43;;;;;;;4.04;65.46;101511.78;5034199;28;20057;-74
2021/03/03 05:47:47;;;;;;;18.02;9.43;;;;;;;4.07;65.46;101516.81;5051279;28;20056;-73
2021/03/03 05:50:17;;;;;;;13.15;9.02;;;;;;;4.12;65.17;101518.84;5053863;28;20053;-76
2021/03/03 05:52:44;;;;;;;13.30;9.23;;;;;;;4.08;65.92;101515.75;5053517;28;20049;-74
2021/03/03 05:55:13;;;;;;;15.80;9.55;;;;;;;4.12;65.09;101516.09;5048888;28;20513;-74
2021/03/03 05:57:40;;;;;;;16.40;9.80;;;;;;;4.11;65.44;101522.69;5050838;28;20041;-75
2021/03/03 06:00:09;;;;;;;15.88;9.07;;;;;;;4.11;64.96;101518.00;5049508;28;20060;-74
2021/03/03 06:02:37;;;;;;;14.25;7.93;;;;;;;4.16;65.40;101515.34;5053233;28;20063;-74
2021/03/03 06:05:05;;;;;;;17.70;8.35;;;;;;;4.18;65.44;101517.84;5040964;28;20080;-74
2021/03/03 06:07:34;;;;;;;14.50;8.30;;;;;;;4.17;64.87;101511.50;5052717;28;20048;-75
2021/03/03 06:10:01;;;;;;;15.35;8.90;;;;;;;4.15;65.10;101519.19;5052421;28;20060;-74
2021/03/03 06:12:30;;;;;;;16.50;9.30;;;;;;;4.10;64.95;101510.81;5044977;28;20053;-74
2021/03/03 06:14:58;;;;;;;16.40;9.93;;;;;;;4.07;65.67;101509.41;5052002;28;20056;-74
2021/03/03 06:17:25;;;;;;;17.38;9.63;;;;;;;4.08;65.71;101510.22;5052484;28;20163;-75
2021/03/03 06:19:52;;;;;;;16.33;8.75;;;;;;;4.05;65.79;101514.31;5053139;28;20056;-74
2021/03/03 06:22:23;;;;;;;16.63;9.82;;;;;;;4.06;65.78;101509.63;5046574;28;20049;-76
2021/03/03 06:24:53;;;;;;;14.38;9.10;;;;;;;4.06;65.93;101502.19;5050499;28;20053;-74
2021/03/03 06:27:21;;;;;;;19.42;10.32;;;;;;;4.09;66.27;101505.53;5052597;28;20053;-74
2021/03/03 06:30:04;;;;;;;17.95;9.93;;;;;;;4.14;66.16;101505.66;5052636;28;20048;-74
2021/03/03 06:32:31;;;;;;;15.77;8.60;;;;;;;4.20;65.37;101501.88;5051861;28;20048;-74
2021/03/03 06:35:00;;;;;;;17.13;9.57;;;;;;;4.25;65.05;101502.00;5050673;28;20056;-73
2021/03/03 06:37:27;;;;;;;16.75;8.82;;;;;;;4.28;65.62;101504.25;5049354;28;20056;-73
2021/03/03 06:40:09;;;;;;;16.10;9.35;;;;;;;4.29;64.89;101505.09;5052582;28;20056;-73
2021/03/03 06:42:36;;;;;;;19.92;10.68;;;;;;;4.32;65.21;101508.19;5034726;28;20505;-73
2021/03/03 06:45:04;;;;;;;19.60;9.30;;;;;;;4.47;65.20;101507.63;5051635;28;20056;-73
2021/03/03 06:47:30;;;;;;;16.13;10.25;;;;;;;4.50;65.31;101509.09;5049766;28;20045;-73
2021/03/03 06:50:12;;;;;;;14.05;9.80;;;;;;;4.60;64.77;101512.00;5049365;28;20474;-73
2021/03/03 06:52:40;;;;;;;17.92;10.02;;;;;;;4.70;64.44;101514.94;5050053;28;20057;-73
2021/03/03 06:55:09;;;;;;;17.55;9.63;;;;;;;4.79;64.69;101516.22;5047991;28;20420;-73
2021/03/03 06:57:36;;;;;;;18.30;9.88;;;;;;;4.85;64.35;101517.97;5032647;28;20408;-73
2021/03/03 07:00:05;;;;;;;19.20;9.82;;;;;;;4.95;63.65;101517.28;5049713;28;20052;-73
2021/03/03 07:02:32;;;;;;;18.30;10.07;;;;;;;5.01;63.79;101513.53;5050290;28;20049;-73
2021/03/03 07:04:59;;;;;;;19.83;9.77;;;;;;;5.09;63.30;101512.28;5047949;28;20486;-73
2021/03/03 07:07:26;;;;;;;16.85;9.10;;;;;;;5.21;63.40;101503.91;5050720;28;20052;-76
2021/03/03 07:09:58;;;;;;;21.33;11.02;;;;;;;5.32;63.02;101505.72;5032544;28;20379;-75
2021/03/03 07:12:28;;;;;;;19.48;10.90;;;;;;;5.40;63.25;101508.06;5039916;28;20364;-75
2021/03/03 07:14:57;;;;;;;19.67;10.57;;;;;;;5.53;62.83;101511.53;5051463;28;20053;-76
2021/03/03 07:17:25;;;;;;;16.13;9.23;;;;;;;5.61;62.51;101508.34;5050743;28;20057;-76
2021/03/03 07:19:53;;;;;;;18.42;10.30;;;;;;;5.69;62.38;101516.16;5047045;28;20057;-76
2021/03/03 07:22:26;;;;;;;16.00;10.00;;;;;;;5.79;62.05;101518.25;5052086;28;20052;-76
2021/03/03 07:24:54;;;;;;;14.27;9.63;;;;;;;5.84;61.72;101513.63;5049951;28;20057;-75
2021/03/03 07:27:22;;;;;;;14.90;9.30;;;;;;;5.96;60.99;101516.28;5048002;28;20041;-74
2021/03/03 07:29:51;;;;;;;16.17;9.20;;;;;;;6.18;60.96;101512.69;5050440;28;20498;-74
2021/03/03 07:32:19;;;;;;;13.45;8.50;;;;;;;6.31;59.83;101515.03;5044545;28;20053;-73
2021/03/03 07:34:48;;;;;;;15.43;9.40;;;;;;;6.50;59.39;101509.97;5047004;28;20053;-74
2021/03/03 07:37:17;;;;;;;13.93;8.95;;;;;;;6.70;58.96;101512.94;5046727;28;20049;-74
2021/03/03 07:39:49;;;;;;;17.17;9.93;;;;;;;6.86;58.01;101513.88;5036505;28;20070;-74
2021/03/03 07:42:21;;;;;;;15.27;10.35;;;;;;;7.08;57.84;101516.56;5043360;28;20056;-74
2021/03/03 07:44:51;;;;;;;17.00;10.50;;;;;;;7.26;56.88;101518.06;5049728;28;20056;-73
2021/03/03 07:47:20;;;;;;;17.90;10.20;;;;;;;7.54;57.02;101518.81;5051457;28;20494;-74
2021/03/03 07:49:51;;;;;;;17.45;9.77;;;;;;;8.03;55.02;101504.63;5053962;28;20437;-73
2021/03/03 07:52:19;;;;;;;13.70;9.52;;;;;;;8.31;54.84;101508.03;5052623;28;20485;-73
2021/03/03 07:54:46;;;;;;;14.98;8.95;;;;;;;8.44;54.14;101515.88;5039443;28;20054;-74
2021/03/03 07:57:14;;;;;;;18.20;9.05;;;;;;;8.41;54.33;101505.31;5052789;28;20152;-74
2021/03/03 07:59:42;;;;;;;17.30;10.07;;;;;;;8.43;54.07;101505.88;5052838;28;20057;-73
2021/03/03 08:02:11;;;;;;;17.35;11.88;;;;;;;8.52;54.58;101509.81;5053044;28;20052;-75
2021/03/03 08:04:40;;;;;;;15.55;11.32;;;;;;;8.54;54.02;101510.31;5051803;28;20060;-75
2021/03/03 08:07:22;;;;;;;17.35;11.45;;;;;;;8.58;53.52;101513.41;5053063;28;20061;-75
2021/03/03 08:10:28;;;;;;;22.05;14.05;;;;;;;8.82;53.21;101510.06;5041790;28;20057;-74
2021/03/03 08:13:04;;;;;;;25.52;14.98;;;;;;;9.01;52.37;101513.13;5049767;28;20144;-73
2021/03/03 08:15:37;;;;;;;22.90;14.75;;;;;;;9.13;52.39;101513.69;5034462;28;20065;-73
2021/03/03 08:18:27;;;;;;;23.70;15.80;;;;;;;9.40;52.32;101518.94;5042756;28;20489;-73
2021/03/03 08:20:58;;;;;;;17.67;9.45;;;;;;;9.75;50.90;101506.88;5051074;28;20505;-74
2021/03/03 08:23:41;;;;;;;14.50;8.90;;;;;;;9.87;50.12;101509.38;5051260;28;20064;-73
2021/03/03 08:26:13;;;;;;;15.68;8.45;;;;;;;9.99;50.49;101510.97;5034959;28;20080;-73
2021/03/03 08:28:43;;;;;;;16.30;9.40;;;;;;;10.23;50.23;101502.81;5051768;28;20505;-73
2021/03/03 08:31:32;;;;;;;19.95;10.68;;;;;;;10.74;49.08;101506.09;5052271;28;20064;-73
2021/03/03 08:34:08;;;;;;;17.02;9.55;;;;;;;11.77;46.95;101500.38;5045403;28;20057;-74
2021/03/03 08:36:50;;;;;;;16.80;9.60;;;;;;;13.39;43.00;101494.59;5051173;28;20128;-73
2021/03/03 08:39:40;;;;;;;17.33;9.93;;;;;;;14.86;39.71;101496.50;5053676;28;20048;-74
2021/03/03 08:42:46;;;;;;;15.75;9.93;;;;;;;16.32;36.57;101491.09;5052479;28;20051;-73
2021/03/03 08:45:16;;;;;;;21.33;11.05;;;;;;;17.01;34.70;101493.13;5051983;28;20079;-73
2021/03/03 08:47:57;;;;;;;18.13;12.02;;;;;;;16.30;34.56;101498.22;5051957;28;20071;-73
2021/03/03 08:50:35;;;;;;;17.00;10.68;;;;;;;16.03;35.11;101491.69;5052425;28;20051;-73
2021/03/03 08:53:29;;;;;;;19.92;12.70;;;;;;;15.77;36.02;101488.78;5050757;28;20056;-73
2021/03/03 08:55:57;;;;;;;24.92;14.80;;;;;;;15.83;36.76;101491.16;5043989;28;20448;-73
2021/03/03 08:59:00;;;;;;;17.98;11.38;;;;;;;15.38;37.34;101480.00;5053822;28;20056;-73
2021/03/03 09:01:53;;;;;;;14.95;11.27;;;;;;;15.00;38.60;101500.09;5050247;28;20052;-75
2021/03/03 09:04:21;;;;;;;19.60;11.63;;;;;;;14.79;39.52;101490.53;5038314;28;20053;-75
2021/03/03 09:06:51;;;;;;;15.90;10.93;;;;;;;14.53;40.36;101491.13;5049590;28;20060;-74
2021/03/03 09:09:18;;;;;;;17.95;10.95;;;;;;;14.19;40.98;101502.81;5050275;28;20059;-73
2021/03/03 09:11:45;;;;;;;18.63;11.50;;;;;;;13.99;42.07;101496.50;5050307;28;20064;-73
2021/03/03 09:14:13;;;;;;;20.88;12.18;;;;;;;13.80;42.35;101502.22;5051072;28;20068;-73
2021/03/03 09:16:57;;;;;;;22.65;12.23;;;;;;;13.72;42.10;101494.53;5046623;28;20044;-73
2021/03/03 09:19:24;;;;;;;16.98;11.65;;;;;;;13.57;41.67;101484.47;5040378;28;20049;-73
2021/03/03 09:21:54;;;;;;;22.02;12.30;;;;;;;13.55;41.69;101488.75;5051412;28;20052;-74
2021/03/03 09:24:22;;;;;;;19.70;11.25;;;;;;;13.62;41.94;101486.34;5049943;28;20064;-74
2021/03/03 09:26:49;;;;;;;18.83;11.25;;;;;;;13.56;42.55;101482.81;5051880;28;20116;-73
2021/03/03 09:29:30;;;;;;;21.45;11.95;;;;;;;13.75;41.65;101479.94;5048263;28;20056;-73
2021/03/03 09:31:58;;;;;;;16.70;11.85;;;;;;;13.79;42.30;101482.94;5049969;28;20052;-74
2021/03/03 09:34:25;;;;;;;18.48;12.27;;;;;;;13.90;42.38;101481.59;5051499;28;20057;-73
2021/03/03 09:36:58;;;;;;;18.58;11.77;;;;;;;14.03;41.69;101482.72;5050289;28;20061;-73
2021/03/03 09:39:26;;;;;;;24.08;12.77;;;;;;;14.08;41.95;101479.78;5052463;28;20064;-74
2021/03/03 09:41:59;;;;;;;20.02;11.88;;;;;;;14.21;41.27;101480.91;5049060;28;20051;-74
2021/03/03 09:44:26;;;;;;;20.65;13.27;;;;;;;14.44;40.67;101478.97;5050978;28;20060;-74
2021/03/03 09:46:56;;;;;;;19.42;13.20;;;;;;;14.74;40.30;101473.81;5050576;28;20072;-74
2021/03/03 09:49:24;;;;;;;27.77;13.27;;;;;;;15.15;39.32;101472.78;5048999;28;20060;-73
2021/03/03 09:51:51;;;;;;;21.10;12.13;;;;;;;15.54;38.16;101460.78;5050329;28;20501;-73
2021/03/03 09:54:30;;;;;;;22.05;12.43;;;;;;;16.07;37.09;101458.16;5052285;28;20075;-74
2021/03/03 09:57:09;;;;;;;22.27;12.80;;;;;;;16.81;36.22;101457.22;5049683;28;20132;-72
2021/03/03 09:59:39;;;;;;;23.60;12.10;;;;;;;18.31;33.37;101453.44;5050825;28;20055;-73
2021/03/03 10:02:07;;;;;;;23.27;11.98;;;;;;;20.15;30.01;101445.44;5048140;28;20053;-73
2021/03/03 10:04:38;;;;;;;20.70;11.88;;;;;;;22.12;27.38;101435.03;5048689;28;20053;-74
2021/03/03 10:07:12;;;;;;;24.50;13.65;;;;;;;23.80;24.84;101438.41;5045465;28;20076;-74
2021/03/03 10:09:44;;;;;;;23.08;14.07;;;;;;;24.85;23.69;101435.00;5049683;28;20430;-74
2021/03/03 10:12:14;;;;;;;22.05;14.02;;;;;;;25.33;22.98;101432.28;5049754;28;20072;-73
2021/03/03 10:15:02;;;;;;;22.80;12.98;;;;;;;25.10;22.65;101430.38;5049084;28;20494;-73
2021/03/03 10:17:35;;;;;;;21.33;13.80;;;;;;;24.74;22.67;101429.19;5048861;28;20049;-73
2021/03/03 10:20:06;;;;;;;20.45;13.93;;;;;;;24.36;23.67;101431.09;5045973;28;20064;-74
2021/03/03 10:22:32;;;;;;;21.55;13.82;;;;;;;24.26;24.22;101421.19;5051056;28;20055;-74
2021/03/03 10:25:02;;;;;;;20.80;13.80;;;;;;;24.01;25.12;101425.72;5048212;28;20053;-73
2021/03/03 10:27:35;;;;;;;19.98;14.38;;;;;;;24.11;25.99;101431.56;5043755;28;20045;-73
2021/03/03 10:30:22;;;;;;;22.35;13.70;;;;;;;24.25;25.63;101425.28;5049212;28;20037;-73
2021/03/03 10:32:50;;;;;;;18.05;12.95;;;;;;;24.92;25.17;101435.91;5046328;28;20060;-73
2021/03/03 10:35:17;;;;;;;22.00;13.13;;;;;;;26.11;22.94;101419.88;5050903;28;20053;-74
2021/03/03 10:37:43;;;;;;;22.85;13.25;;;;;;;27.97;20.60;101422.41;5050414;28;20056;-74
2021/03/03 10:40:12;;;;;;;17.15;12.75;;;;;;;29.68;18.93;101419.09;5042746;28;20053;-73
2021/03/03 10:42:39;;;;;;;;;;;;;;;30.95;17.79;101415.22;5049713;28;20497;-74
2021/03/03 10:45:17;;;;;;;20.33;13.30;;;;;;;32.38;15.95;101416.09;5049954;28;20297;-74
2021/03/03 10:47:48;;;;;;;22.60;14.55;;;;;;;33.14;14.65;101414.03;5048594;28;20056;-75
2021/03/03 10:50:17;;;;;;;18.30;12.98;;;;;;;34.16;14.22;101413.09;5051291;28;20057;-74
2021/03/03 10:52:57;;;;;;;19.77;12.85;;;;;;;34.88;13.58;101416.78;5048521;28;20053;-74
2021/03/03 10:55:33;;;;;;;20.45;13.20;;;;;;;35.09;13.31;101409.50;5043914;28;20072;-73
2021/03/03 10:58:08;;;;;;;17.88;13.48;;;;;;;35.56;12.68;101400.13;5048737;28;20509;-73
2021/03/03 11:01:02;;;;;;;19.35;14.02;;;;;;;36.27;12.81;101399.69;5050616;28;20049;-73
2021/03/03 11:03:32;;;;;;;23.42;14.60;;;;;;;36.58;12.02;101402.66;5049306;28;20064;-74
2021/03/03 11:06:00;;;;;;;21.40;14.00;;;;;;;37.32;11.47;101400.13;5050430;28;20052;-74
2021/03/03 11:08:27;;;;;;;22.88;14.90;;;;;;;37.75;11.04;101385.88;5048733;28;20056;-73
2021/03/03 11:11:05;;;;;;;19.98;14.63;;;;;;;38.25;10.27;101388.66;5048998;28;20048;-73
2021/03/03 11:13:33;;;;;;;22.42;15.68;;;;;;;38.46;10.00;101389.75;5041432;28;20410;-73
2021/03/03 11:16:00;;;;;;;21.08;16.23;;;;;;;39.02;9.66;101391.25;5050006;28;20140;-74
2021/03/03 11:18:26;;;;;;;21.00;16.40;;;;;;;39.01;9.93;101389.63;5046497;28;20053;-74
2021/03/03 11:20:53;;;;;;;24.80;15.80;;;;;;;39.47;9.51;101386.47;5047912;28;20057;-74
2021/03/03 11:23:20;;;;;;;21.13;16.20;;;;;;;39.74;8.98;101384.69;5051590;28;20064;-74
2021/03/03 11:25:47;;;;;;;20.08;15.48;;;;;;;39.70;9.38;101392.81;5050976;28;20534;-73
2021/03/03 11:28:15;;;;;;;21.60;17.23;;;;;;;39.92;9.17;101375.00;5048613;28;20068;-73
2021/03/03 11:30:42;;;;;;;21.07;16.40;;;;;;;39.71;8.52;101383.56;5048895;28;20060;-73
2021/03/03 11:33:08;;;;;;;20.25;16.05;;;;;;;39.23;9.12;101379.78;5050361;28;20064;-73
2021/03/03 11:35:36;;;;;;;23.48;16.48;;;;;;;39.23;8.71;101379.78;5052596;28;20545;-73
2021/03/03 11:38:03;;;;;;;24.65;15.73;;;;;;;38.63;9.31;101382.28;5050248;28;20064;-74